Time;durP1;ratioP1;P1;durP2;ratioP2;P2;SDS_P1;SDS_P2;PMS_P1;PMS_P2;Temp;Humidity;BMP_temperature;BMP_pressure;BME280_temperature;BME280_humidity;BME280_pressure;Samples;Min_cycle;Max_cycle;Signal;HPM_P1;HPM_P2
2021/06/26 00:01:26;;;;;;;18.07;5.73;;;;;;;26.08;57.96;94763.53;5060384;28;20449;-77
2021/06/26 00:03:53;;;;;;;15.13;5.37;;;;;;;26.07;58.15;94764.59;5060138;28;20465;-77
2021/06/26 00:06:22;;;;;;;10.70;5.90;;;;;;;26.04;59.32;94776.63;5095887;28;20438;-77
2021/06/26 00:08:51;;;;;;;15.50;5.20;;;;;;;26.05;59.72;94774.75;5095817;28;20449;-77
2021/06/26 00:11:18;;;;;;;26.50;6.53;;;;;;;26.01;60.34;94768.97;5096141;28;20448;-77
2021/06/26 00:13:45;;;;;;;21.33;7.23;;;;;;;26.01;60.72;94774.34;5095862;28;20448;-77
2021/06/26 00:16:12;;;;;;;19.63;5.67;;;;;;;25.96;60.69;94784.97;5095867;28;20450;-77
2021/06/26 00:18:39;;;;;;;20.80;6.17;;;;;;;25.99;60.93;94789.91;5095531;28;20776;-77
2021/06/26 00:21:06;;;;;;;18.53;5.90;;;;;;;26.10;60.23;94785.63;5076964;28;20794;-77
2021/06/26 00:23:34;;;;;;;17.00;5.47;;;;;;;26.22;60.06;94784.63;5095439;28;20452;-77
2021/06/26 00:26:01;;;;;;;17.50;6.57;;;;;;;26.30;60.35;94791.53;5095464;28;20450;-77
2021/06/26 00:28:28;;;;;;;36.37;7.50;;;;;;;25.85;65.18;94794.66;5043279;28;20493;-77
2021/06/26 00:30:55;;;;;;;22.97;8.13;;;;;;;25.77;69.13;94797.66;5095002;28;20451;-77
2021/06/26 00:33:22;;;;;;;27.50;6.23;;;;;;;25.68;69.66;94792.78;5043130;28;20924;-77
2021/06/26 00:35:49;;;;;;;27.27;6.57;;;;;;;25.57;71.06;94787.13;5095473;28;20446;-77
2021/06/26 00:38:16;;;;;;;20.63;7.17;;;;;;;25.67;71.15;94796.53;5095547;28;20444;-77
2021/06/26 00:40:44;;;;;;;21.50;6.90;;;;;;;25.72;71.66;94792.13;5094837;28;20448;-76
2021/06/26 00:43:11;;;;;;;19.20;7.17;;;;;;;25.79;71.08;94792.88;5095151;28;20447;-77
2021/06/26 00:45:38;;;;;;;20.80;6.53;;;;;;;25.87;70.95;94794.41;5042753;28;20439;-77
2021/06/26 00:48:06;;;;;;;20.27;7.17;;;;;;;25.96;70.41;94798.44;5042800;28;20840;-77
2021/06/26 00:50:33;;;;;;;20.23;7.07;;;;;;;26.01;69.97;94784.28;5043655;28;20454;-77
2021/06/26 00:53:01;;;;;;;15.40;6.40;;;;;;;26.07;67.72;94788.78;5095073;28;20764;-77
2021/06/26 00:55:29;;;;;;;24.53;6.50;;;;;;;26.05;65.25;94780.94;5094975;28;20448;-77
2021/06/26 00:58:00;;;;;;;14.73;5.57;;;;;;;26.02;63.37;94784.09;5095015;28;20501;-77
2021/06/26 01:00:28;;;;;;;26.57;6.93;;;;;;;25.97;63.08;94785.81;5094749;28;20443;-77
2021/06/26 01:02:55;;;;;;;16.20;5.50;;;;;;;25.91;62.71;94766.84;5094248;28;20454;-78
2021/06/26 01:05:22;;;;;;;17.50;6.00;;;;;;;25.88;62.39;94764.63;5042493;28;20454;-76
2021/06/26 01:07:49;;;;;;;26.87;5.13;;;;;;;25.86;63.11;94753.28;5075460;28;20486;-78
2021/06/26 01:10:17;;;;;;;18.97;5.93;;;;;;;25.83;62.08;94763.66;5094669;28;20849;-78
2021/06/26 01:12:44;;;;;;;25.03;7.40;;;;;;;25.81;62.28;94760.38;5094537;28;20453;-77
2021/06/26 01:15:16;;;;;;;12.33;4.90;;;;;;;25.77;62.71;94761.88;5042787;28;20458;-77
2021/06/26 01:17:43;;;;;;;14.37;6.50;;;;;;;25.74;62.70;94755.09;5094667;28;20458;-77
2021/06/26 01:20:11;;;;;;;17.90;7.50;;;;;;;25.76;64.88;94744.94;5094781;28;20435;-79
2021/06/26 01:22:44;;;;;;;20.50;6.30;;;;;;;25.74;62.41;94741.66;5094716;28;20483;-76
2021/06/26 01:25:12;;;;;;;14.77;5.57;;;;;;;25.73;61.64;94739.16;5094006;28;20487;-76
2021/06/26 01:27:39;;;;;;;16.10;5.20;;;;;;;25.72;62.05;94745.59;5093837;28;20490;-76
2021/06/26 01:30:07;;;;;;;15.57;6.23;;;;;;;25.71;62.10;94749.34;5094014;28;20443;-76
2021/06/26 01:32:34;;;;;;;11.70;5.40;;;;;;;25.74;62.43;94754.28;5042279;28;20943;-76
2021/06/26 01:35:01;;;;;;;17.60;5.50;;;;;;;25.77;61.63;94757.34;5093849;28;20447;-76
2021/06/26 01:37:28;;;;;;;18.10;5.50;;;;;;;25.52;62.51;94757.41;5041876;28;20446;-76
2021/06/26 01:39:56;;;;;;;20.37;6.17;;;;;;;25.26;66.13;94769.28;5041680;28;20451;-76
2021/06/26 01:42:23;;;;;;;20.63;7.90;;;;;;;25.30;67.15;94773.16;5093617;28;20447;-76
2021/06/26 01:44:50;;;;;;;29.33;6.27;;;;;;;25.22;68.80;94764.59;5093581;28;20444;-76
2021/06/26 01:47:17;;;;;;;12.97;6.90;;;;;;;24.97;72.30;94764.59;5093560;28;20988;-76
2021/06/26 01:49:45;;;;;;;22.30;7.37;;;;;;;25.06;72.10;94774.03;5093409;28;20451;-76
2021/06/26 01:52:12;;;;;;;29.53;8.10;;;;;;;24.98;72.75;94777.84;5093723;28;20943;-76
2021/06/26 01:54:39;;;;;;;27.50;7.63;;;;;;;25.00;73.44;94780.31;5093443;28;20446;-77
2021/06/26 01:57:09;;;;;;;20.33;8.53;;;;;;;25.10;73.13;94777.91;5057798;28;20439;-76
2021/06/26 01:59:36;;;;;;;17.53;7.57;;;;;;;25.18;73.08;94769.59;5093452;28;20455;-76
2021/06/26 02:02:03;;;;;;;18.90;6.40;;;;;;;25.26;72.60;94777.34;5040901;28;20942;-76
2021/06/26 02:04:30;;;;;;;19.17;6.60;;;;;;;25.35;72.35;94777.84;5057844;28;20456;-76
2021/06/26 02:06:57;;;;;;;20.97;7.17;;;;;;;25.41;72.28;94776.13;5093130;28;20442;-76
2021/06/26 02:09:24;;;;;;;17.57;6.57;;;;;;;25.45;72.02;94782.72;5093347;28;20463;-76
2021/06/26 02:11:51;;;;;;;26.43;8.37;;;;;;;25.44;71.22;94786.44;5093196;28;20442;-76
2021/06/26 02:14:19;;;;;;;18.47;6.70;;;;;;;25.39;71.13;94786.28;5092780;28;20455;-76
2021/06/26 02:16:46;;;;;;;18.63;7.73;;;;;;;25.39;70.87;94789.78;5093145;28;20448;-75
2021/06/26 02:19:13;;;;;;;21.17;6.53;;;;;;;25.37;70.28;94789.19;5093022;28;20446;-76
2021/06/26 02:21:40;;;;;;;15.40;5.60;;;;;;;25.35;68.68;94790.47;5092842;28;20939;-76
2021/06/26 02:24:08;;;;;;;22.47;6.40;;;;;;;25.28;67.85;94788.69;5093045;28;20460;-76
2021/06/26 02:26:35;;;;;;;17.70;5.80;;;;;;;25.23;67.36;94785.84;5008490;28;20474;-76
2021/06/26 02:29:02;;;;;;;11.43;7.93;;;;;;;25.22;67.83;94788.75;5092788;28;21189;-77
2021/06/26 02:31:31;;;;;;;25.63;7.20;;;;;;;25.18;66.13;94792.94;5092903;28;20503;-76
2021/06/26 02:33:58;;;;;;;19.60;6.77;;;;;;;25.09;66.56;94784.34;5092653;28;20479;-76
2021/06/26 02:36:25;;;;;;;15.70;5.60;;;;;;;25.07;66.88;94785.59;5092845;28;20923;-76
2021/06/26 02:38:52;;;;;;;9.60;4.87;;;;;;;25.05;67.39;94787.69;5040759;28;20498;-76
2021/06/26 02:41:21;;;;;;;20.40;7.00;;;;;;;24.99;67.54;94781.34;5092947;28;20446;-76
2021/06/26 02:43:48;;;;;;;20.80;5.53;;;;;;;24.91;66.93;94781.59;5092731;28;20447;-76
2021/06/26 02:46:15;;;;;;;21.53;7.93;;;;;;;24.85;66.80;94774.41;5092904;28;20455;-76
2021/06/26 02:48:44;;;;;;;22.03;6.60;;;;;;;24.75;67.10;94764.19;5092477;28;20486;-76
2021/06/26 02:51:11;;;;;;;15.17;5.33;;;;;;;24.77;67.43;94769.34;5092876;28;20473;-77
2021/06/26 02:53:38;;;;;;;18.37;5.83;;;;;;;24.71;67.22;94766.50;5092611;28;20450;-76
2021/06/26 02:56:06;;;;;;;29.43;6.47;;;;;;;24.64;67.27;94770.28;5092636;28;20451;-76
2021/06/26 02:58:33;;;;;;;17.57;6.40;;;;;;;24.55;67.50;94760.84;5092609;28;20449;-76
2021/06/26 03:01:00;;;;;;;14.43;6.47;;;;;;;24.51;68.09;94765.00;5092356;28;20539;-76
2021/06/26 03:03:27;;;;;;;18.90;6.10;;;;;;;24.49;68.22;94762.56;5092505;28;20451;-76
2021/06/26 03:05:56;;;;;;;23.37;6.23;;;;;;;24.48;67.81;94760.91;5073553;28;20554;-76
2021/06/26 03:08:23;;;;;;;17.73;6.07;;;;;;;24.48;68.29;94766.28;5092510;28;20486;-76
2021/06/26 03:10:50;;;;;;;21.43;5.90;;;;;;;24.52;68.42;94759.44;5092573;28;20571;-76
2021/06/26 03:13:17;;;;;;;18.13;6.90;;;;;;;24.54;67.18;94757.34;5092716;28;20510;-76
2021/06/26 03:15:45;;;;;;;14.63;6.53;;;;;;;24.60;68.09;94751.13;5092250;28;20442;-76
2021/06/26 03:18:12;;;;;;;16.40;6.20;;;;;;;24.59;67.04;94745.97;5092402;28;20449;-77
2021/06/26 03:20:39;;;;;;;14.37;6.30;;;;;;;24.53;65.98;94742.28;5040343;28;20501;-77
2021/06/26 03:23:08;;;;;;;17.93;5.13;;;;;;;24.48;65.50;94742.13;5092490;28;20455;-76
2021/06/26 03:25:35;;;;;;;15.00;6.40;;;;;;;24.38;66.25;94745.31;5092429;28;20507;-76
2021/06/26 03:28:03;;;;;;;19.37;7.30;;;;;;;24.25;66.70;94752.59;5095891;28;21022;-77
2021/06/26 03:30:30;;;;;;;20.03;7.43;;;;;;;24.22;67.78;94753.03;5096564;28;20499;-76
2021/06/26 03:32:57;;;;;;;14.53;6.50;;;;;;;24.24;67.00;94759.81;5096126;28;20450;-76
2021/06/26 03:35:24;;;;;;;16.73;5.63;;;;;;;24.34;67.13;94759.38;5096359;28;20453;-76
2021/06/26 03:37:51;;;;;;;20.63;6.23;;;;;;;24.42;66.92;94767.16;5096227;28;20446;-76
2021/06/26 03:40:20;;;;;;;14.70;6.27;;;;;;;24.46;66.63;94763.00;5077090;28;20530;-76
2021/06/26 03:42:47;;;;;;;34.37;7.53;;;;;;;24.50;65.96;94764.19;5095958;28;20500;-77
2021/06/26 03:45:14;;;;;;;15.30;6.17;;;;;;;24.64;65.50;94767.59;5096179;28;20831;-76
2021/06/26 03:47:41;;;;;;;15.80;6.53;;;;;;;24.85;65.06;94775.22;5095854;28;20508;-76
2021/06/26 03:50:09;;;;;;;22.10;6.13;;;;;;;24.99;63.10;94774.13;5096009;28;20446;-76
2021/06/26 03:52:36;;;;;;;18.70;7.07;;;;;;;25.20;63.07;94780.94;4995273;28;20465;-77
2021/06/26 03:55:04;;;;;;;16.23;6.30;;;;;;;25.47;62.64;94791.38;5095826;28;20475;-77
2021/06/26 03:57:32;;;;;;;19.30;5.70;;;;;;;25.25;62.27;94805.25;5095859;28;20447;-76
2021/06/26 03:59:59;;;;;;;24.13;6.73;;;;;;;24.83;68.12;94814.91;5096111;28;20446;-76
2021/06/26 04:02:26;;;;;;;27.13;8.60;;;;;;;24.29;73.08;94804.81;5095679;28;20446;-76
2021/06/26 04:04:53;;;;;;;23.47;8.30;;;;;;;24.37;74.26;94807.22;5095640;28;20990;-76
2021/06/26 04:07:20;;;;;;;21.97;8.10;;;;;;;24.55;74.63;94809.97;5095673;28;20495;-76
2021/06/26 04:09:47;;;;;;;17.77;7.80;;;;;;;25.00;73.18;94821.41;5095569;28;20571;-77
2021/06/26 04:12:14;;;;;;;26.57;7.70;;;;;;;25.33;71.91;94813.00;5095697;28;20524;-76
2021/06/26 04:14:43;;;;;;;27.73;7.77;;;;;;;25.77;70.99;94823.72;5095562;28;20510;-76
2021/06/26 04:17:10;;;;;;;18.57;7.00;;;;;;;26.21;69.42;94825.19;5095526;28;21138;-76
2021/06/26 04:19:37;;;;;;;27.90;7.10;;;;;;;26.61;67.72;94824.66;5095271;28;20452;-76
2021/06/26 04:22:04;;;;;;;25.20;7.90;;;;;;;26.99;66.14;94825.09;5095590;28;20512;-76
2021/06/26 04:24:32;;;;;;;24.60;8.97;;;;;;;27.27;65.16;94824.41;5095019;28;20501;-76
2021/06/26 04:26:59;;;;;;;23.97;7.57;;;;;;;27.59;63.99;94824.81;5095625;28;20840;-76
2021/06/26 04:29:26;;;;;;;19.63;7.23;;;;;;;27.92;63.12;94832.28;5095168;28;20484;-77
2021/06/26 04:31:54;;;;;;;32.57;8.67;;;;;;;28.12;61.04;94831.88;5043117;28;20508;-76
2021/06/26 04:34:21;;;;;;;23.13;7.53;;;;;;;28.48;60.50;94827.16;5095382;28;20447;-81
2021/06/26 04:36:49;;;;;;;22.07;8.30;;;;;;;28.89;58.27;94834.94;5095535;28;20971;-78
2021/06/26 04:39:16;;;;;;;29.63;8.27;;;;;;;29.24;58.05;94823.06;5095999;28;20489;-80
2021/06/26 04:41:43;;;;;;;20.10;7.23;;;;;;;29.40;57.34;94821.38;5043450;28;20769;-80
2021/06/26 04:44:10;;;;;;;33.87;9.20;;;;;;;29.30;56.17;94822.06;5095830;28;20497;-80
2021/06/26 04:46:38;;;;;;;22.57;7.73;;;;;;;29.50;56.21;94811.59;5095564;28;20468;-80
2021/06/26 04:49:06;;;;;;;15.90;7.67;;;;;;;29.61;56.27;94815.22;5095889;28;20487;-80
2021/06/26 04:51:36;;;;;;;17.97;8.60;;;;;;;29.82;55.35;94819.03;5043208;28;20480;-77
2021/06/26 04:54:04;;;;;;;23.27;8.47;;;;;;;29.76;55.34;94815.41;5094904;28;20912;-76
2021/06/26 04:56:31;;;;;;;19.27;7.87;;;;;;;29.77;55.37;94818.94;5094853;28;20447;-76
2021/06/26 04:58:58;;;;;;;25.30;11.10;;;;;;;29.92;55.23;94822.66;5094796;28;20476;-76
2021/06/26 05:01:25;;;;;;;21.53;9.27;;;;;;;30.29;54.47;94830.16;5094550;28;20977;-76
2021/06/26 05:03:52;;;;;;;28.37;8.67;;;;;;;30.66;53.35;94819.47;5042399;28;20448;-77
2021/06/26 05:06:20;;;;;;;18.33;7.20;;;;;;;31.07;52.42;94819.81;5094991;28;20448;-77
2021/06/26 05:08:47;;;;;;;20.23;7.10;;;;;;;31.44;50.83;94819.81;5094406;28;20520;-77
2021/06/26 05:11:14;;;;;;;27.03;7.73;;;;;;;31.78;49.90;94820.31;5094483;28;20922;-76
2021/06/26 05:13:41;;;;;;;21.27;6.67;;;;;;;32.07;49.42;94823.44;5042192;28;20924;-76
2021/06/26 05:16:08;;;;;;;20.10;6.77;;;;;;;32.30;48.38;94819.47;5042257;28;20478;-76
2021/06/26 05:18:35;;;;;;;20.20;7.17;;;;;;;32.51;48.43;94821.16;5094041;28;20451;-77
2021/06/26 05:21:03;;;;;;;37.73;7.70;;;;;;;32.64;47.61;94817.91;5094850;28;20467;-77
2021/06/26 05:23:32;;;;;;;17.20;6.43;;;;;;;32.83;47.41;94810.09;5094636;28;20455;-78
2021/06/26 06:32:43;;;;;;;20.00;7.40;;;;;;;32.77;44.13;94823.91;5091120;27;20538;-79
2021/06/26 06:35:12;;;;;;;20.63;8.23;;;;;;;33.21;43.05;94829.66;5055256;28;20456;-79
2021/06/26 06:37:39;;;;;;;19.57;8.37;;;;;;;33.68;44.29;94826.63;5090958;28;20921;-79
2021/06/26 06:40:08;;;;;;;23.10;7.90;;;;;;;33.90;42.42;94823.63;5091647;28;20448;-79
2021/06/26 06:42:38;;;;;;;22.67;9.73;;;;;;;34.36;41.65;94818.81;5088769;28;20472;-78
2021/06/26 06:45:07;;;;;;;23.40;8.53;;;;;;;34.78;40.43;94825.66;5090930;28;20440;-80
2021/06/26 06:47:34;;;;;;;30.83;8.67;;;;;;;34.78;38.53;94812.03;5090372;28;20475;-79
2021/06/26 06:50:03;;;;;;;25.17;8.23;;;;;;;34.77;38.59;94822.09;5091114;28;20498;-79
2021/06/26 06:52:30;;;;;;;24.33;7.83;;;;;;;34.81;39.53;94821.53;5088532;28;20999;-79
2021/06/26 06:54:57;;;;;;;22.47;7.40;;;;;;;34.61;39.88;94822.47;5055011;28;20473;-80
2021/06/26 06:57:24;;;;;;;28.57;9.33;;;;;;;33.99;39.02;94816.50;5090909;28;20436;-81
2021/06/26 06:59:52;;;;;;;32.80;8.63;;;;;;;33.98;39.92;94816.78;5090637;28;20456;-82
2021/06/26 07:02:19;;;;;;;20.87;7.43;;;;;;;34.19;39.64;94810.16;5090149;28;20436;-80
2021/06/26 07:04:46;;;;;;;23.80;7.67;;;;;;;34.14;39.84;94808.28;5090270;28;20508;-83
2021/06/26 07:07:15;;;;;;;32.83;8.13;;;;;;;34.37;39.37;94801.34;5089996;28;20924;-81
2021/06/26 07:09:42;;;;;;;22.63;9.03;;;;;;;33.52;38.69;94795.09;5090888;28;20424;-82
2021/06/26 07:12:09;;;;;;;29.57;9.77;;;;;;;33.86;38.68;94800.75;5071390;28;20533;-81
2021/06/26 07:14:37;;;;;;;34.63;8.40;;;;;;;34.03;39.52;94805.84;5055036;28;20436;-80
2021/06/26 07:17:04;;;;;;;27.47;8.50;;;;;;;34.19;39.00;94796.53;5090691;28;20441;-81
2021/06/26 07:19:31;;;;;;;32.23;8.90;;;;;;;33.97;39.04;94788.72;5071512;28;20494;-81
2021/06/26 07:21:58;;;;;;;28.60;8.63;;;;;;;33.71;40.00;94796.13;5090305;28;20490;-81
2021/06/26 07:24:26;;;;;;;26.07;8.40;;;;;;;33.73;39.45;94795.88;5089788;28;20486;-82
2021/06/26 07:26:53;;;;;;;21.57;7.33;;;;;;;33.89;41.36;94793.94;5090312;28;20459;-80
2021/06/26 07:29:21;;;;;;;27.57;8.40;;;;;;;33.93;39.41;94795.84;5089952;28;20919;-80
2021/06/26 07:31:48;;;;;;;24.93;8.47;;;;;;;33.71;39.62;94798.88;5089267;28;20583;-81
2021/06/26 07:34:15;;;;;;;21.77;8.50;;;;;;;33.69;40.82;94800.22;5090339;28;20428;-80
2021/06/26 07:36:42;;;;;;;20.93;7.30;;;;;;;33.69;41.84;94797.50;5090619;28;20436;-79
2021/06/26 07:42:32;;;;;;;20.87;7.23;;;;;;;33.80;39.54;94799.91;5083174;28;20435;-85
2021/06/26 07:45:00;;;;;;;24.20;8.00;;;;;;;33.75;39.34;94810.81;5076291;28;20425;-84
2021/06/26 07:47:27;;;;;;;29.70;7.77;;;;;;;33.51;40.73;94794.28;5076293;28;20494;-83
2021/06/26 07:49:54;;;;;;;24.17;7.63;;;;;;;33.52;39.38;94795.09;5075840;28;20433;-85
2021/06/26 07:52:21;;;;;;;26.73;8.03;;;;;;;33.37;38.26;94795.13;5057623;28;20492;-85
2021/06/26 07:54:48;;;;;;;24.37;8.40;;;;;;;33.76;38.64;94798.84;5075889;28;20456;-85
2021/06/26 07:57:15;;;;;;;30.87;9.50;;;;;;;34.10;38.43;94799.00;5076645;28;20510;-85
2021/06/26 07:59:44;;;;;;;23.00;6.80;;;;;;;34.24;39.21;94793.78;5075747;28;20514;-84
2021/06/26 08:02:11;;;;;;;33.13;8.50;;;;;;;34.67;38.49;94799.53;5075491;28;20548;-80
2021/06/26 08:04:38;;;;;;;18.70;5.87;;;;;;;35.02;36.54;94793.88;5076485;28;20425;-81
2021/06/26 08:10:46;;;;;;;22.20;6.20;;;;;;;34.89;32.56;94789.03;5075955;28;20415;-79
2021/06/26 08:13:14;;;;;;;25.40;6.80;;;;;;;34.91;34.63;94781.41;5056224;28;20418;-80
2021/06/26 08:15:43;;;;;;;17.33;6.10;;;;;;;34.77;32.53;94794.03;5055789;28;20444;-78
2021/06/26 08:18:11;;;;;;;30.17;6.90;;;;;;;34.69;33.05;94787.25;5054968;28;20507;-77
2021/06/26 08:20:39;;;;;;;20.27;5.90;;;;;;;34.82;34.16;94790.44;5055556;28;20441;-79
2021/06/26 08:23:07;;;;;;;26.23;5.87;;;;;;;34.69;33.07;94792.69;5055723;28;20446;-79
2021/06/26 08:25:35;;;;;;;25.73;6.00;;;;;;;34.63;34.30;94787.56;5055067;28;20434;-79
2021/06/26 08:28:02;;;;;;;19.10;6.20;;;;;;;34.72;32.98;94789.44;5055387;28;20450;-80
2021/06/26 08:30:30;;;;;;;21.23;6.07;;;;;;;34.81;32.82;94794.28;5055336;28;20454;-79
2021/06/26 08:32:59;;;;;;;16.30;7.63;;;;;;;34.63;32.78;94788.38;5055183;28;20474;-80
2021/06/26 08:35:26;;;;;;;17.70;5.67;;;;;;;34.59;33.73;94790.06;5036731;28;20477;-79
2021/06/26 08:37:54;;;;;;;18.90;6.80;;;;;;;34.46;32.65;94793.41;5020574;28;20499;-78
2021/06/26 08:40:21;;;;;;;23.67;6.07;;;;;;;34.45;33.44;94791.78;5055480;28;20442;-79
2021/06/26 08:42:49;;;;;;;27.70;6.60;;;;;;;34.68;33.52;94790.25;5054906;28;20446;-78
2021/06/26 08:45:19;;;;;;;21.03;6.53;;;;;;;34.60;32.02;94788.13;5054725;28;20481;-78
2021/06/26 08:47:48;;;;;;;15.93;5.60;;;;;;;34.82;33.00;94785.81;5054513;28;20508;-78
2021/06/26 08:50:17;;;;;;;29.03;6.80;;;;;;;34.88;32.05;94779.25;5054455;28;20438;-78
2021/06/26 08:52:46;;;;;;;16.30;5.50;;;;;;;34.85;32.17;94773.53;5054428;28;20485;-78
2021/06/26 08:55:14;;;;;;;15.37;5.67;;;;;;;34.92;31.80;94784.94;5053435;28;20507;-78
2021/06/26 08:57:43;;;;;;;25.37;5.80;;;;;;;34.87;31.60;94783.06;5019588;28;20466;-79
2021/06/26 09:00:13;;;;;;;25.67;7.07;;;;;;;34.96;32.63;94780.53;5035838;28;21003;-82
2021/06/26 09:02:40;;;;;;;16.33;5.33;;;;;;;35.09;32.36;94782.63;5054948;28;20446;-80
2021/06/26 09:05:09;;;;;;;15.20;5.80;;;;;;;35.16;33.71;94785.00;5054823;28;20426;-80
2021/06/26 09:07:39;;;;;;;20.80;6.27;;;;;;;35.34;31.90;94776.97;5055102;28;20967;-80
2021/06/26 09:10:16;;;;;;;19.80;6.50;;;;;;;35.52;31.51;94778.13;5054973;28;20453;-80
2021/06/26 09:12:44;;;;;;;16.87;5.67;;;;;;;35.70;32.36;94771.13;5020463;28;20543;-77
2021/06/26 09:15:21;;;;;;;15.07;5.27;;;;;;;35.83;31.54;94767.69;5052915;28;20496;-79
2021/06/26 09:17:48;;;;;;;27.33;7.23;;;;;;;35.84;31.78;94766.59;5053690;28;20445;-78
2021/06/26 09:20:15;;;;;;;29.30;6.37;;;;;;;35.89;31.40;94763.00;5054136;28;20490;-79
2021/06/26 09:22:46;;;;;;;26.40;7.40;;;;;;;35.37;30.51;94764.66;5053915;28;20457;-79
2021/06/26 09:25:28;;;;;;;19.57;6.03;;;;;;;34.71;31.35;94755.09;5054454;28;20532;-78
2021/06/26 09:27:56;;;;;;;18.73;5.70;;;;;;;34.56;31.13;94754.38;5053627;28;21008;-79
2021/06/26 09:30:37;;;;;;;20.37;5.43;;;;;;;34.67;32.51;94753.19;5054053;28;20453;-78
2021/06/26 09:33:12;;;;;;;20.70;5.83;;;;;;;34.45;32.76;94748.19;5053241;28;20540;-76
2021/06/26 09:35:40;;;;;;;19.23;7.00;;;;;;;34.63;31.62;94747.50;5053277;28;20453;-77
2021/06/26 09:38:10;;;;;;;25.20;6.50;;;;;;;34.46;31.73;94745.19;5053618;28;20531;-77
2021/06/26 09:40:40;;;;;;;15.03;4.80;;;;;;;34.46;31.53;94736.19;5053370;28;20449;-76
2021/06/26 09:43:08;;;;;;;24.90;6.47;;;;;;;34.36;34.57;94734.31;5053049;28;20929;-77
2021/06/26 09:45:35;;;;;;;16.47;6.50;;;;;;;34.53;32.45;94744.84;5053421;28;20446;-77
2021/06/26 09:48:07;;;;;;;19.53;5.90;;;;;;;34.22;32.93;94733.31;5034327;28;20434;-76
2021/06/26 09:50:38;;;;;;;21.40;6.07;;;;;;;33.99;32.26;94723.09;5053302;28;20446;-77
2021/06/26 09:53:07;;;;;;;22.13;6.80;;;;;;;33.75;32.48;94733.78;5052966;28;20866;-76
2021/06/26 09:55:37;;;;;;;18.93;6.10;;;;;;;33.82;33.74;94731.56;5053387;28;20773;-76
2021/06/26 09:58:09;;;;;;;17.50;6.13;;;;;;;33.61;32.20;94722.69;5053117;28;20511;-77
2021/06/26 10:00:37;;;;;;;28.73;6.30;;;;;;;33.83;33.85;94717.72;5052939;28;20516;-77
2021/06/26 10:03:05;;;;;;;19.87;5.63;;;;;;;33.92;33.16;94719.88;5053016;28;20922;-76
2021/06/26 10:05:32;;;;;;;19.97;5.30;;;;;;;33.96;31.43;94718.22;5052723;28;20450;-76
2021/06/26 10:08:01;;;;;;;20.07;6.13;;;;;;;33.92;30.87;94711.69;5034220;28;20454;-77
2021/06/26 10:10:28;;;;;;;21.17;5.00;;;;;;;33.90;32.23;94716.59;5052836;28;21019;-77
2021/06/26 10:12:57;;;;;;;14.33;4.67;;;;;;;33.71;31.51;94717.19;5053138;28;20528;-76
2021/06/26 10:15:26;;;;;;;20.67;5.03;;;;;;;33.81;31.44;94706.25;5052612;28;20449;-77
2021/06/26 10:17:54;;;;;;;19.97;4.70;;;;;;;33.91;32.86;94701.91;5053081;28;20511;-76
2021/06/26 10:20:23;;;;;;;18.70;5.77;;;;;;;34.05;30.73;94706.44;5052623;28;20873;-77
2021/06/26 10:22:54;;;;;;;24.73;5.03;;;;;;;34.15;31.53;94700.13;5052698;28;20453;-77
2021/06/26 10:25:22;;;;;;;16.33;5.03;;;;;;;34.30;31.18;94701.91;5052913;28;20445;-76
2021/06/26 10:27:49;;;;;;;23.10;5.47;;;;;;;34.30;31.19;94701.91;5052797;28;20442;-76
2021/06/26 10:30:20;;;;;;;18.17;5.47;;;;;;;34.27;31.14;94697.84;5052261;28;20453;-76
2021/06/26 10:32:54;;;;;;;21.63;4.83;;;;;;;34.33;30.30;94699.44;5052551;28;20489;-76
2021/06/26 10:35:22;;;;;;;20.90;5.90;;;;;;;34.39;30.59;94698.34;5017318;28;20498;-76
2021/06/26 10:38:00;;;;;;;15.53;4.63;;;;;;;34.44;30.94;94697.50;5052577;28;20535;-76
2021/06/26 10:40:40;;;;;;;21.67;5.20;;;;;;;34.54;30.75;94691.97;5050832;28;20446;-76
2021/06/26 10:43:18;;;;;;;17.60;4.30;;;;;;;34.63;31.38;94692.16;5017131;28;20445;-81
2021/06/26 10:45:47;;;;;;;22.93;5.73;;;;;;;34.75;30.12;94687.16;5052373;28;20445;-76
2021/06/26 10:48:19;;;;;;;26.10;5.57;;;;;;;34.74;31.72;94688.28;5052645;28;20527;-77
2021/06/26 10:50:49;;;;;;;16.93;6.00;;;;;;;34.68;30.28;94686.66;5052234;28;20495;-77
2021/06/26 10:53:28;;;;;;;27.43;5.97;;;;;;;34.65;31.36;94682.59;5050404;28;20516;-77
2021/06/26 10:56:04;;;;;;;20.60;5.70;;;;;;;34.76;31.40;94686.88;5032096;28;20507;-79
2021/06/26 10:58:33;;;;;;;18.63;5.40;;;;;;;34.91;32.25;94680.50;5009507;28;20465;-76
2021/06/26 11:01:15;;;;;;;21.00;5.40;;;;;;;34.98;30.02;94669.22;5023429;28;20455;-77
2021/06/26 11:03:43;;;;;;;20.67;5.40;;;;;;;35.06;31.30;94672.16;5052556;28;20445;-78
2021/06/26 11:06:24;;;;;;;17.90;5.87;;;;;;;35.18;30.70;94676.41;5048924;28;20521;-76
2021/06/26 11:09:02;;;;;;;24.87;5.53;;;;;;;35.27;31.58;94671.91;5042799;28;20446;-78
2021/06/26 11:11:35;;;;;;;22.00;5.23;;;;;;;35.28;29.16;94662.66;5033098;28;20798;-76
2021/06/26 11:14:11;;;;;;;21.83;5.60;;;;;;;35.24;29.28;94656.13;5047009;28;20781;-76
2021/06/26 11:16:42;;;;;;;25.97;6.63;;;;;;;35.11;29.75;94654.94;5047200;28;20442;-79
2021/06/26 11:19:09;;;;;;;30.20;6.40;;;;;;;35.13;30.07;94651.91;5052066;28;20531;-77
2021/06/26 11:21:44;;;;;;;15.90;5.50;;;;;;;35.08;29.69;94658.22;5037809;28;20453;-79
2021/06/26 11:24:11;;;;;;;18.70;5.23;;;;;;;35.03;28.42;94650.13;5037808;28;20433;-77
2021/06/26 11:26:50;;;;;;;15.47;5.80;;;;;;;35.00;27.00;94648.78;5055970;28;20450;-79
2021/06/26 11:29:29;;;;;;;21.73;5.47;;;;;;;35.02;27.23;94649.28;5055716;28;20499;-79
2021/06/26 11:31:59;;;;;;;24.87;5.47;;;;;;;34.96;26.28;94641.44;5055498;28;20538;-78
2021/06/26 11:34:27;;;;;;;29.93;5.90;;;;;;;34.94;26.14;94647.19;5055930;28;20454;-79
2021/06/26 11:37:03;;;;;;;32.17;6.90;;;;;;;34.93;29.01;94640.09;5055476;28;20483;-77
2021/06/26 11:39:32;;;;;;;16.17;5.70;;;;;;;34.87;28.12;94641.25;5055652;28;20449;-79
2021/06/26 11:41:59;;;;;;;19.67;4.93;;;;;;;34.79;27.74;94633.69;5051575;28;20942;-77
2021/06/26 11:44:35;;;;;;;12.90;5.03;;;;;;;34.75;27.58;94638.09;5044257;28;20454;-78
2021/06/26 11:47:05;;;;;;;22.17;5.37;;;;;;;34.77;27.05;94633.97;5035848;28;20831;-77
2021/06/26 11:49:34;;;;;;;22.40;5.37;;;;;;;34.78;25.75;94624.69;5000454;28;20438;-78
2021/06/26 11:52:01;;;;;;;23.80;5.60;;;;;;;34.44;25.91;94623.94;5037110;28;20451;-78
2021/06/26 11:54:28;;;;;;;20.03;6.10;;;;;;;34.30;27.45;94615.56;5055104;28;20447;-78
2021/06/26 11:56:55;;;;;;;14.80;4.80;;;;;;;34.25;29.05;94621.03;5055057;28;20501;-77
2021/06/26 11:59:23;;;;;;;26.20;6.50;;;;;;;34.20;31.83;94621.09;5048153;28;20537;-78
2021/06/26 12:01:50;;;;;;;22.63;7.07;;;;;;;34.00;37.97;94618.50;5049519;28;20449;-78
2021/06/26 12:04:29;;;;;;;20.03;6.70;;;;;;;33.84;37.70;94609.66;5055204;28;20481;-77
2021/06/26 12:06:56;;;;;;;18.07;5.93;;;;;;;33.59;38.88;94605.13;5009025;28;20447;-78
2021/06/26 12:09:24;;;;;;;17.27;7.70;;;;;;;33.53;38.72;94596.16;5035449;28;20470;-77
2021/06/26 12:11:52;;;;;;;21.97;5.60;;;;;;;33.50;39.41;94585.84;5035206;28;20450;-82
2021/06/26 12:14:27;;;;;;;8.60;5.07;;;;;;;33.42;38.47;94572.03;5034993;28;20520;-77
2021/06/26 12:17:04;;;;;;;20.07;5.00;;;;;;;33.54;38.72;94564.31;5034881;28;20958;-77
2021/06/26 12:19:33;;;;;;;18.37;6.00;;;;;;;33.61;37.62;94561.31;5034587;28;20540;-77
2021/06/26 12:22:02;;;;;;;22.07;6.20;;;;;;;33.71;37.22;94563.94;5034796;28;20446;-78
2021/06/26 12:24:32;;;;;;;15.20;5.43;;;;;;;33.82;37.49;94563.59;5034908;28;20454;-78
2021/06/26 12:27:07;;;;;;;17.03;5.63;;;;;;;33.92;37.12;94551.03;5034696;28;20825;-77
2021/06/26 12:29:35;;;;;;;20.83;6.27;;;;;;;34.00;37.25;94539.53;4999593;28;20577;-77
2021/06/26 12:32:02;;;;;;;15.00;5.67;;;;;;;34.05;37.33;94537.56;5034044;28;20544;-78
2021/06/26 12:34:29;;;;;;;23.50;6.10;;;;;;;34.00;36.71;94528.66;5016135;28;20485;-77
2021/06/26 12:37:00;;;;;;;20.43;5.50;;;;;;;34.07;35.88;94529.13;5036052;28;20527;-77
2021/06/26 12:39:32;;;;;;;22.00;5.87;;;;;;;34.10;36.17;94537.53;5038413;28;20454;-77
2021/06/26 12:42:01;;;;;;;17.00;5.17;;;;;;;33.92;34.79;94542.88;5045474;28;20445;-77
2021/06/26 12:44:29;;;;;;;31.50;5.60;;;;;;;33.91;35.53;94530.38;5053415;28;20512;-78